Time;durP1;ratioP1;P1;durP2;ratioP2;P2;SDS_P1;SDS_P2;PMS_P1;PMS_P2;Temp;Humidity;BMP_temperature;BMP_pressure;BME280_temperature;BME280_humidity;BME280_pressure;Samples;Min_cycle;Max_cycle;Signal;HPM_P1;HPM_P2
2024/03/25 00:01:19;;;;;;;20.63;10.20;;;2.50;99.90;;;;;;4956423;28;20283;-62
2024/03/25 00:03:50;;;;;;;19.80;10.43;;;2.40;99.90;;;;;;4927180;29;20279;-62
2024/03/25 00:06:16;;;;;;;16.50;9.67;;;2.40;99.90;;;;;;4947779;29;20239;-62
2024/03/25 00:08:44;;;;;;;18.20;11.17;;;2.50;99.90;;;;;;4955316;28;20243;-63
2024/03/25 00:11:13;;;;;;;20.27;11.40;;;2.60;99.90;;;;;;4951850;29;20215;-62
2024/03/25 00:13:44;;;;;;;18.87;10.70;;;2.60;99.90;;;;;;4950341;29;20219;-62
2024/03/25 00:16:11;;;;;;;18.23;11.33;;;2.50;99.90;;;;;;4947423;29;20575;-62
2024/03/25 00:18:41;;;;;;;14.00;10.53;;;2.50;99.90;;;;;;4955522;29;20762;-63
2024/03/25 00:21:08;;;;;;;19.53;11.23;;;2.50;99.90;;;;;;4934728;29;20725;-61
2024/03/25 00:23:36;;;;;;;19.37;11.23;;;2.50;99.90;;;;;;4929793;29;20670;-62
2024/03/25 00:26:06;;;;;;;17.77;10.73;;;2.50;99.90;;;;;;4938139;29;20193;-62
2024/03/25 00:28:34;;;;;;;14.73;10.57;;;2.40;99.90;;;;;;4937045;29;20229;-62
2024/03/25 00:31:01;;;;;;;16.43;10.17;;;2.40;99.90;;;;;;4937129;29;20240;-62
2024/03/25 00:33:29;;;;;;;19.50;10.67;;;2.30;99.90;;;;;;4929635;29;20229;-63
2024/03/25 00:35:57;;;;;;;20.00;11.20;;;2.30;99.90;;;;;;4941350;28;20705;-63
2024/03/25 00:38:25;;;;;;;24.17;11.40;;;2.30;99.90;;;;;;4937641;29;20245;-62
2024/03/25 00:40:53;;;;;;;15.17;9.93;;;2.20;99.90;;;;;;4920512;29;20707;-64
2024/03/25 00:43:20;;;;;;;15.80;10.87;;;2.20;99.90;;;;;;4912499;29;20233;-63
2024/03/25 00:45:47;;;;;;;22.53;10.47;;;2.20;99.90;;;;;;4917910;29;20312;-62
2024/03/25 00:48:15;;;;;;;18.37;10.33;;;2.20;99.90;;;;;;4934485;29;20231;-63
2024/03/25 00:50:42;;;;;;;16.33;10.33;;;2.10;99.90;;;;;;4910263;28;20567;-63
2024/03/25 00:53:12;;;;;;;22.10;10.90;;;2.10;99.90;;;;;;4916544;29;20197;-61
2024/03/25 00:55:39;;;;;;;17.17;10.97;;;2.10;99.90;;;;;;4917461;29;20233;-62
2024/03/25 00:58:07;;;;;;;18.63;11.00;;;2.00;99.90;;;;;;4922191;29;20225;-62
2024/03/25 01:00:36;;;;;;;22.03;10.80;;;2.00;99.90;;;;;;4932932;29;20231;-63
2024/03/25 01:03:04;;;;;;;22.43;11.43;;;2.00;99.90;;;;;;4930515;28;20232;-64
2024/03/25 01:05:32;;;;;;;20.63;12.00;;;2.00;99.90;;;;;;4953319;28;20192;-61
2024/03/25 01:08:38;;;;;;;23.53;12.03;;;2.00;99.90;;;;;;4939556;29;20287;-63
2024/03/25 01:11:08;;;;;;;16.53;11.33;;;2.00;99.90;;;;;;4936584;29;20291;-62
2024/03/25 01:13:37;;;;;;;17.17;10.87;;;2.00;99.90;;;;;;4935946;29;20229;-62
2024/03/25 01:16:04;;;;;;;15.60;10.27;;;2.00;99.90;;;;;;4941961;29;20216;-62
2024/03/25 01:18:33;;;;;;;18.67;10.37;;;2.00;99.90;;;;;;4935905;29;20617;-62
2024/03/25 01:21:02;;;;;;;14.20;9.83;;;2.00;99.90;;;;;;4936083;29;20327;-62
2024/03/25 01:23:30;;;;;;;19.70;11.20;;;1.90;99.90;;;;;;4946676;29;20212;-63
2024/03/25 01:26:00;;;;;;;16.10;10.30;;;1.90;99.90;;;;;;4942517;29;20299;-62
2024/03/25 01:28:32;;;;;;;19.87;10.70;;;1.90;99.90;;;;;;4954382;29;20586;-63
2024/03/25 01:30:59;;;;;;;18.93;11.23;;;1.90;99.90;;;;;;4940855;29;20589;-62
2024/03/25 01:33:27;;;;;;;17.97;10.93;;;1.90;99.90;;;;;;4944033;29;20228;-63
2024/03/25 01:35:55;;;;;;;14.97;10.23;;;1.90;99.90;;;;;;4940339;28;20306;-63
2024/03/25 01:38:23;;;;;;;15.47;10.27;;;1.90;99.90;;;;;;4938496;29;20269;-63
2024/03/25 01:40:52;;;;;;;15.17;10.10;;;2.00;99.90;;;;;;4920087;29;20229;-62
2024/03/25 01:43:20;;;;;;;17.67;10.43;;;1.90;99.90;;;;;;4935371;29;20228;-62
2024/03/25 01:45:49;;;;;;;17.50;10.40;;;1.90;99.90;;;;;;4936323;29;20221;-63
2024/03/25 01:48:16;;;;;;;21.97;11.40;;;1.90;99.90;;;;;;4935863;29;20229;-63
2024/03/25 01:50:46;;;;;;;19.33;11.00;;;1.90;99.90;;;;;;4942601;28;20334;-62
2024/03/25 01:53:21;;;;;;;15.97;10.77;;;1.90;99.90;;;;;;4937939;29;20331;-62
2024/03/25 01:55:53;;;;;;;21.93;10.77;;;1.90;99.90;;;;;;4931827;29;20217;-62
2024/03/25 01:58:25;;;;;;;18.73;10.43;;;1.80;99.90;;;;;;4943029;29;20224;-63
2024/03/25 02:01:01;;;;;;;15.70;10.67;;;1.70;99.90;;;;;;4929356;29;20279;-62
2024/03/25 02:03:30;;;;;;;18.07;10.40;;;1.60;99.90;;;;;;4947878;29;20303;-63
2024/03/25 02:06:03;;;;;;;18.70;10.63;;;1.60;99.90;;;;;;4919442;29;20771;-63
2024/03/25 02:08:33;;;;;;;17.60;11.70;;;1.50;99.90;;;;;;4944278;29;20587;-62
2024/03/25 02:11:03;;;;;;;16.03;9.80;;;1.50;99.90;;;;;;4943632;29;20230;-63
2024/03/25 02:13:31;;;;;;;17.17;10.50;;;1.40;99.90;;;;;;4924200;29;20216;-63
2024/03/25 02:15:59;;;;;;;17.30;10.23;;;1.40;99.90;;;;;;4937032;29;20225;-62
2024/03/25 02:18:27;;;;;;;16.43;10.83;;;1.40;99.90;;;;;;4934905;29;21691;-63
2024/03/25 02:21:00;;;;;;;14.00;9.47;;;1.40;99.90;;;;;;4931194;29;21124;-62
2024/03/25 02:23:28;;;;;;;17.23;10.27;;;1.40;99.90;;;;;;4934301;29;20246;-65
2024/03/25 02:25:56;;;;;;;16.50;10.70;;;1.50;99.90;;;;;;4940852;29;20687;-62
2024/03/25 02:28:24;;;;;;;22.93;11.17;;;1.50;99.90;;;;;;4921423;29;20225;-62
2024/03/25 02:30:55;;;;;;;18.77;10.47;;;1.50;99.90;;;;;;4918380;29;20259;-63
2024/03/25 02:33:23;;;;;;;16.57;10.60;;;1.50;99.90;;;;;;4942198;29;20242;-62
2024/03/25 02:35:53;;;;;;;19.17;10.63;;;1.40;99.90;;;;;;4934393;29;20247;-62
2024/03/25 02:38:22;;;;;;;15.07;10.37;;;1.30;99.90;;;;;;4934863;29;20232;-62
2024/03/25 02:40:50;;;;;;;16.43;10.57;;;1.30;99.90;;;;;;4933991;29;20223;-63
2024/03/25 02:43:21;;;;;;;20.57;11.27;;;1.30;99.90;;;;;;4924285;29;20235;-63
2024/03/25 02:45:48;;;;;;;16.83;10.60;;;1.30;99.90;;;;;;4925298;29;20267;-61
2024/03/25 02:48:16;;;;;;;15.70;10.53;;;1.40;99.90;;;;;;4934226;29;20220;-62
2024/03/25 02:54:25;;;;;;;17.97;10.73;;;1.50;99.90;;;;;;4935798;29;20213;-63
2024/03/25 02:56:52;;;;;;;20.13;11.80;;;1.50;99.90;;;;;;4945589;28;20219;-61
2024/03/25 02:59:23;;;;;;;26.90;11.80;;;1.50;99.90;;;;;;4935914;29;20192;-61
2024/03/25 03:01:49;;;;;;;20.83;11.40;;;1.40;99.90;;;;;;4940182;29;20312;-62
2024/03/25 03:04:20;;;;;;;22.03;11.27;;;1.30;99.90;;;;;;4938886;29;20710;-63
2024/03/25 03:06:50;;;;;;;19.80;11.33;;;1.30;99.90;;;;;;4951044;29;20308;-62
2024/03/25 03:09:18;;;;;;;22.33;11.33;;;1.30;99.90;;;;;;4934018;29;20252;-62
2024/03/25 03:11:44;;;;;;;17.37;11.53;;;1.30;99.90;;;;;;4947681;28;20279;-62
2024/03/25 03:14:15;;;;;;;15.83;10.27;;;1.20;99.90;;;;;;4952803;28;20192;-62
2024/03/25 03:16:43;;;;;;;19.40;11.07;;;1.20;99.90;;;;;;4928149;29;20279;-62
2024/03/25 03:23:12;;;;;;;21.43;11.20;;;1.20;99.90;;;;;;4941691;28;20684;-62
2024/03/25 03:25:40;;;;;;;18.30;11.13;;;1.20;99.90;;;;;;4927645;29;20307;-63
2024/03/25 03:28:08;;;;;;;24.73;11.87;;;1.30;99.90;;;;;;4938257;29;20224;-62
2024/03/25 03:30:37;;;;;;;18.97;11.70;;;1.30;99.90;;;;;;4933442;29;20232;-62
2024/03/25 03:33:07;;;;;;;26.77;12.37;;;1.40;99.90;;;;;;4913613;29;20221;-62
2024/03/25 03:35:34;;;;;;;28.60;12.00;;;1.40;99.90;;;;;;4919010;29;20196;-61
2024/03/25 03:38:02;;;;;;;22.23;11.80;;;1.50;99.90;;;;;;4927862;29;20234;-61
2024/03/25 03:40:29;;;;;;;21.60;11.70;;;1.50;99.90;;;;;;4924835;29;20243;-62
2024/03/25 03:42:57;;;;;;;28.50;12.37;;;1.60;99.90;;;;;;4923834;29;20237;-62
2024/03/25 03:45:25;;;;;;;26.90;12.10;;;1.70;99.90;;;;;;4915826;29;20228;-62
2024/03/25 03:47:53;;;;;;;27.33;12.23;;;1.70;99.90;;;;;;4934041;29;20224;-63
2024/03/25 03:50:23;;;;;;;25.13;12.13;;;1.80;99.90;;;;;;4938892;29;20636;-64
2024/03/25 03:52:50;;;;;;;31.93;12.60;;;1.80;99.90;;;;;;4933935;29;20276;-61
2024/03/25 03:55:17;;;;;;;30.87;12.73;;;1.90;99.90;;;;;;4948815;29;20232;-63
2024/03/25 03:58:08;;;;;;;24.83;12.57;;;2.10;99.90;;;;;;4933842;29;20224;-63
2024/03/25 04:00:38;;;;;;;31.57;12.87;;;2.20;99.90;;;;;;4917128;29;20232;-63
2024/03/25 04:03:06;;;;;;;41.10;13.40;;;2.20;99.90;;;;;;4935984;29;20224;-62
2024/03/25 04:05:35;;;;;;;40.03;14.40;;;2.30;99.90;;;;;;4922424;29;20196;-61
2024/03/25 04:08:03;;;;;;;36.30;13.20;;;2.50;99.90;;;;;;4914317;29;20542;-63
2024/03/25 04:10:30;;;;;;;39.10;13.83;;;2.60;99.90;;;;;;4918803;29;20308;-63
2024/03/25 04:12:58;;;;;;;54.47;14.33;;;2.80;99.90;;;;;;4930678;29;20230;-61
2024/03/25 04:15:32;;;;;;;38.80;14.53;;;3.00;99.90;;;;;;4937501;29;20596;-63
2024/03/25 04:18:01;;;;;;;58.23;14.87;;;3.10;99.90;;;;;;4937109;29;20564;-62
2024/03/25 04:20:49;;;;;;;54.93;14.53;;;3.20;99.90;;;;;;4951706;29;20197;-62
2024/03/25 04:23:36;;;;;;;60.47;15.83;;;3.40;99.90;;;;;;4941576;29;20223;-63
2024/03/25 04:32:52;;;;;;;52.93;16.57;;;3.70;99.90;;;;;;4937153;29;20287;-63
2024/03/25 04:35:19;;;;;;;54.50;16.73;;;3.80;99.90;;;;;;4922021;29;20252;-64
